Time;durP1;ratioP1;P1;durP2;ratioP2;P2;SDS_P1;SDS_P2;PMS_P1;PMS_P2;Temp;Humidity;BMP_temperature;BMP_pressure;BME280_temperature;BME280_humidity;BME280_pressure;Samples;Min_cycle;Max_cycle;Signal;HPM_P1;HPM_P2
2024/02/06 00:02:00;;;;;;;3.70;1.47;;;;;;;;;;6383865;28;20284;-58
2024/02/06 00:05:05;;;;;;;2.67;1.40;;;;;;;;;;6383344;28;20293;-57
2024/02/06 00:08:13;;;;;;;1.23;1.23;;;;;;;;;;6383480;27;20298;-57
2024/02/06 00:11:17;;;;;;;2.30;1.53;;;;;;;;;;6370708;27;20290;-58
2024/02/06 00:14:22;;;;;;;2.37;1.20;;;;;;;;;;6362464;28;20307;-58
2024/02/06 00:17:26;;;;;;;1.23;1.10;;;;;;;;;;6362951;28;20562;-57
2024/02/06 00:20:30;;;;;;;3.23;1.30;;;;;;;;;;6362481;28;20366;-57
2024/02/06 00:23:34;;;;;;;1.23;1.13;;;;;;;;;;6363406;28;20282;-57
2024/02/06 00:26:38;;;;;;;1.67;1.57;;;;;;;;;;6362019;28;20302;-57
2024/02/06 00:29:43;;;;;;;1.73;1.23;;;;;;;;;;6361975;28;20296;-57
2024/02/06 00:32:47;;;;;;;1.40;1.30;;;;;;;;;;6362608;28;20294;-58
2024/02/06 00:35:51;;;;;;;1.30;1.30;;;;;;;;;;6361884;28;20570;-57
2024/02/06 00:38:55;;;;;;;1.67;1.57;;;;;;;;;;6387625;27;20292;-56
2024/02/06 00:41:59;;;;;;;1.00;1.00;;;;;;;;;;6388333;27;20295;-58
2024/02/06 00:45:05;;;;;;;1.23;1.13;;;;;;;;;;6387178;27;20294;-57
2024/02/06 00:48:09;;;;;;;1.30;1.20;;;;;;;;;;6388119;27;20459;-57
2024/02/06 00:51:13;;;;;;;4.67;1.50;;;;;;;;;;6386996;27;20292;-56
2024/02/06 00:54:17;;;;;;;3.33;1.20;;;;;;;;;;6386897;27;20299;-57
2024/02/06 00:57:21;;;;;;;2.10;1.20;;;;;;;;;;6386502;27;20340;-59
2024/02/06 01:00:27;;;;;;;1.77;1.50;;;;;;;;;;6387068;27;20298;-58
2024/02/06 01:03:31;;;;;;;1.23;1.23;;;;;;;;;;6386855;27;20237;-57
2024/02/06 01:06:34;;;;;;;7.50;1.50;;;;;;;;;;6386569;27;20289;-56
2024/02/06 01:09:39;;;;;;;1.40;1.30;;;;;;;;;;6383538;27;20484;-57
2024/02/06 01:12:43;;;;;;;3.90;1.33;;;;;;;;;;6361411;28;20295;-58
2024/02/06 01:15:48;;;;;;;3.30;1.23;;;;;;;;;;6360843;28;20298;-57
2024/02/06 01:18:52;;;;;;;1.20;1.20;;;;;;;;;;6360931;28;20347;-58
2024/02/06 01:21:56;;;;;;;3.20;1.40;;;;;;;;;;6360858;28;20333;-57
2024/02/06 01:25:00;;;;;;;1.47;1.30;;;;;;;;;;6360483;28;20591;-58
2024/02/06 01:28:04;;;;;;;2.33;1.20;;;;;;;;;;6360887;28;20356;-56
2024/02/06 01:31:11;;;;;;;2.40;1.27;;;;;;;;;;6360946;28;20294;-57
2024/02/06 01:34:16;;;;;;;1.17;1.17;;;;;;;;;;6360450;27;20570;-57
2024/02/06 01:37:20;;;;;;;1.83;1.43;;;;;;;;;;6360650;28;20294;-56
2024/02/06 01:40:24;;;;;;;2.00;1.23;;;;;;;;;;6360249;28;20297;-58
2024/02/06 01:43:28;;;;;;;1.90;1.30;;;;;;;;;;6360855;28;20297;-56
2024/02/06 01:46:34;;;;;;;1.20;1.20;;;;;;;;;;6360169;28;20424;-57
2024/02/06 01:49:38;;;;;;;5.53;1.53;;;;;;;;;;6360023;28;20563;-57
2024/02/06 01:52:43;;;;;;;2.00;1.20;;;;;;;;;;6360510;28;20302;-57
2024/02/06 01:55:47;;;;;;;1.63;1.40;;;;;;;;;;6379764;27;20293;-56
2024/02/06 01:58:52;;;;;;;2.17;1.40;;;;;;;;;;6385521;27;20475;-58
2024/02/06 02:01:58;;;;;;;5.90;2.67;;;;;;;;;;6386229;27;20321;-57
2024/02/06 02:05:06;;;;;;;5.33;1.60;;;;;;;;;;6384925;27;20483;-57
2024/02/06 02:08:10;;;;;;;1.40;1.40;;;;;;;;;;6385880;27;20296;-57
2024/02/06 02:11:15;;;;;;;1.30;1.30;;;;;;;;;;6368459;27;20294;-57
2024/02/06 02:14:19;;;;;;;1.40;1.40;;;;;;;;;;6359431;28;20302;-55
2024/02/06 02:17:24;;;;;;;1.50;1.40;;;;;;;;;;6341069;28;20295;-58
2024/02/06 02:20:28;;;;;;;2.23;1.60;;;;;;;;;;6359300;28;20298;-58
2024/02/06 02:23:33;;;;;;;5.63;1.67;;;;;;;;;;6359900;28;20461;-56
2024/02/06 02:26:39;;;;;;;1.60;1.50;;;;;;;;;;6373637;27;20302;-57
2024/02/06 02:29:43;;;;;;;1.37;1.37;;;;;;;;;;6384501;27;20311;-57
2024/02/06 02:32:47;;;;;;;7.80;1.50;;;;;;;;;;6382488;27;20533;-57
2024/02/06 02:35:52;;;;;;;3.90;1.47;;;;;;;;;;6384587;27;20295;-57
2024/02/06 02:38:58;;;;;;;5.60;1.83;;;;;;;;;;6384685;27;20293;-57
2024/02/06 02:42:02;;;;;;;1.30;1.30;;;;;;;;;;6385061;27;20448;-57
2024/02/06 02:45:06;;;;;;;3.07;1.57;;;;;;;;;;6384828;27;20296;-58
2024/02/06 02:48:10;;;;;;;1.53;1.43;;;;;;;;;;6384838;27;20471;-57
2024/02/06 02:51:15;;;;;;;1.80;1.57;;;;;;;;;;6383910;27;20292;-57
2024/02/06 02:54:23;;;;;;;6.60;1.50;;;;;;;;;;6383892;27;20613;-58
2024/02/06 02:57:27;;;;;;;2.73;1.50;;;;;;;;;;6383759;27;20265;-58
2024/02/06 03:00:31;;;;;;;3.70;2.03;;;;;;;;;;6383950;27;20287;-57
2024/02/06 03:03:36;;;;;;;1.40;1.40;;;;;;;;;;6384490;27;20237;-55
2024/02/06 03:06:40;;;;;;;2.00;1.57;;;;;;;;;;6383906;27;20335;-57
2024/02/06 03:09:45;;;;;;;1.73;1.70;;;;;;;;;;6380398;27;20308;-57
2024/02/06 03:12:49;;;;;;;1.60;1.50;;;;;;;;;;6358408;28;20443;-57
2024/02/06 03:15:55;;;;;;;1.50;1.33;;;;;;;;;;6358155;28;20484;-57
2024/02/06 03:18:59;;;;;;;1.60;1.50;;;;;;;;;;6358467;28;20397;-57
2024/02/06 03:22:03;;;;;;;2.00;1.50;;;;;;;;;;6358736;28;20345;-57
2024/02/06 03:25:09;;;;;;;2.97;1.57;;;;;;;;;;6358397;28;20291;-57
2024/02/06 03:28:13;;;;;;;1.87;1.40;;;;;;;;;;6384330;27;20296;-57
2024/02/06 03:31:17;;;;;;;1.60;1.50;;;;;;;;;;6384082;28;20288;-57
2024/02/06 03:34:21;;;;;;;2.47;1.60;;;;;;;;;;6384238;27;20562;-58
2024/02/06 03:37:26;;;;;;;1.90;1.80;;;;;;;;;;6382697;28;20479;-57
2024/02/06 03:40:32;;;;;;;1.75;1.67;;;;;;;;;;6382110;28;20449;-57
2024/02/06 03:43:36;;;;;;;3.63;1.50;;;;;;;;;;6384067;27;20309;-58
2024/02/06 03:46:45;;;;;;;1.63;1.60;;;;;;;;;;6388510;27;20488;-57
2024/02/06 03:49:49;;;;;;;1.67;1.67;;;;;;;;;;6388608;27;20286;-56
2024/02/06 03:52:53;;;;;;;2.57;1.63;;;;;;;;;;6388919;27;20296;-57
2024/02/06 03:55:59;;;;;;;1.50;1.50;;;;;;;;;;6388245;27;20302;-57
2024/02/06 03:59:03;;;;;;;1.93;1.70;;;;;;;;;;6388105;27;20301;-57
2024/02/06 04:02:06;;;;;;;1.80;1.50;;;;;;;;;;6382723;27;20306;-56
2024/02/06 04:05:11;;;;;;;3.27;1.90;;;;;;;;;;6361825;28;20291;-56
2024/02/06 04:08:15;;;;;;;1.70;1.53;;;;;;;;;;6362211;28;20364;-56
2024/02/06 04:11:20;;;;;;;2.20;1.67;;;;;;;;;;6362885;28;20301;-56
2024/02/06 04:14:24;;;;;;;1.70;1.60;;;;;;;;;;6362736;28;20289;-57
2024/02/06 04:17:28;;;;;;;1.50;1.50;;;;;;;;;;6363049;28;20292;-57
2024/02/06 04:20:33;;;;;;;2.10;1.60;;;;;;;;;;6361857;28;20301;-56
2024/02/06 04:23:37;;;;;;;1.97;1.70;;;;;;;;;;6361919;28;20289;-56
2024/02/06 04:26:42;;;;;;;2.07;1.90;;;;;;;;;;6362349;28;20293;-57
2024/02/06 04:29:46;;;;;;;1.60;1.60;;;;;;;;;;6343651;28;20294;-57
2024/02/06 04:32:51;;;;;;;1.60;1.60;;;;;;;;;;6362261;28;20321;-57
2024/02/06 04:35:56;;;;;;;1.77;1.77;;;;;;;;;;6361638;28;20286;-57
2024/02/06 04:38:59;;;;;;;1.40;1.37;;;;;;;;;;6361575;28;20290;-56
2024/02/06 04:42:06;;;;;;;1.80;1.70;;;;;;;;;;6362264;28;20375;-58
2024/02/06 04:45:10;;;;;;;1.50;1.50;;;;;;;;;;6359313;28;20458;-57
2024/02/06 04:48:14;;;;;;;1.50;1.50;;;;;;;;;;6361292;28;20285;-56
2024/02/06 04:51:18;;;;;;;1.30;1.30;;;;;;;;;;6361652;28;20455;-55
2024/02/06 04:54:22;;;;;;;3.17;1.67;;;;;;;;;;6359798;28;20308;-57
2024/02/06 04:57:28;;;;;;;1.60;1.50;;;;;;;;;;6360917;28;20244;-58
2024/02/06 05:00:32;;;;;;;2.23;1.70;;;;;;;;;;6361297;28;20361;-54
2024/02/06 05:03:37;;;;;;;2.93;1.33;;;;;;;;;;6342221;28;20446;-54
2024/02/06 05:06:41;;;;;;;1.50;1.50;;;;;;;;;;6361610;28;20244;-56
2024/02/06 05:09:46;;;;;;;1.73;1.70;;;;;;;;;;6360858;28;20285;-56
2024/02/06 05:12:51;;;;;;;2.37;1.67;;;;;;;;;;6361253;28;20285;-56
2024/02/06 05:15:55;;;;;;;3.23;1.40;;;;;;;;;;6360609;28;20466;-58
2024/02/06 05:18:59;;;;;;;2.53;1.80;;;;;;;;;;6360690;28;20289;-58
2024/02/06 05:22:04;;;;;;;1.77;1.70;;;;;;;;;;6361526;28;20292;-56
2024/02/06 05:25:08;;;;;;;1.73;1.40;;;;;;;;;;6360748;28;20293;-56
2024/02/06 05:28:14;;;;;;;1.80;1.70;;;;;;;;;;6360520;28;20296;-55
2024/02/06 05:31:18;;;;;;;1.60;1.50;;;;;;;;;;6360875;28;20317;-54
2024/02/06 05:34:22;;;;;;;2.23;1.77;;;;;;;;;;6360359;28;20287;-55
2024/02/06 05:37:26;;;;;;;1.47;1.47;;;;;;;;;;6360590;28;20310;-57
2024/02/06 05:40:30;;;;;;;1.40;1.40;;;;;;;;;;6360013;28;20285;-55
2024/02/06 05:43:36;;;;;;;2.53;1.50;;;;;;;;;;6360557;28;20303;-57
2024/02/06 05:46:40;;;;;;;1.80;1.73;;;;;;;;;;6360824;28;20293;-57
2024/02/06 05:49:44;;;;;;;1.67;1.60;;;;;;;;;;6360189;28;20301;-57
2024/02/06 05:52:48;;;;;;;1.50;1.40;;;;;;;;;;6360322;28;20307;-57
2024/02/06 05:55:52;;;;;;;3.27;1.70;;;;;;;;;;6360123;28;20305;-59
2024/02/06 05:58:58;;;;;;;2.33;1.50;;;;;;;;;;6360075;28;20288;-57
2024/02/06 06:02:05;;;;;;;1.57;1.43;;;;;;;;;;6360290;28;20289;-57
2024/02/06 06:05:09;;;;;;;3.50;1.80;;;;;;;;;;6359530;28;20472;-56
2024/02/06 06:08:13;;;;;;;4.73;1.67;;;;;;;;;;6359143;28;20479;-56
2024/02/06 06:11:19;;;;;;;1.83;1.57;;;;;;;;;;6359799;28;20456;-57
2024/02/06 06:14:25;;;;;;;2.87;1.50;;;;;;;;;;6359613;28;20294;-57
2024/02/06 06:17:29;;;;;;;6.37;1.73;;;;;;;;;;6360065;28;20292;-57
2024/02/06 06:20:33;;;;;;;7.00;1.93;;;;;;;;;;6359274;28;20562;-56
2024/02/06 06:23:37;;;;;;;1.80;1.70;;;;;;;;;;6359506;28;20293;-56
2024/02/06 06:26:41;;;;;;;1.80;1.70;;;;;;;;;;6341568;28;20304;-56
2024/02/06 06:29:47;;;;;;;1.63;1.63;;;;;;;;;;6359526;28;20291;-58
2024/02/06 06:32:51;;;;;;;2.30;1.77;;;;;;;;;;6358780;28;20296;-58
2024/02/06 06:35:55;;;;;;;2.20;1.90;;;;;;;;;;6333964;28;20293;-57
2024/02/06 06:38:59;;;;;;;11.13;2.10;;;;;;;;;;6334082;28;20290;-56
2024/02/06 06:42:04;;;;;;;2.00;1.90;;;;;;;;;;6316634;28;20465;-58
2024/02/06 06:45:11;;;;;;;2.17;1.97;;;;;;;;;;6334050;28;20301;-58
2024/02/06 06:48:15;;;;;;;2.83;2.00;;;;;;;;;;6333992;28;20308;-57
2024/02/06 06:51:19;;;;;;;2.13;1.90;;;;;;;;;;6334500;28;20430;-57
2024/02/06 06:54:23;;;;;;;6.93;2.50;;;;;;;;;;6332914;28;20295;-57
2024/02/06 06:57:27;;;;;;;7.73;2.60;;;;;;;;;;6334645;28;20234;-56
2024/02/06 07:00:34;;;;;;;16.00;3.03;;;;;;;;;;6334031;28;20294;-57
2024/02/06 07:03:38;;;;;;;4.50;2.67;;;;;;;;;;6333946;28;20304;-56
2024/02/06 07:06:42;;;;;;;6.50;2.50;;;;;;;;;;6333812;28;20297;-57
2024/02/06 07:09:46;;;;;;;5.80;2.30;;;;;;;;;;6333178;28;20608;-58
2024/02/06 07:12:50;;;;;;;10.10;2.63;;;;;;;;;;6333569;28;20288;-57
2024/02/06 07:15:55;;;;;;;11.97;2.63;;;;;;;;;;6333754;28;20361;-56
2024/02/06 07:18:59;;;;;;;10.53;2.53;;;;;;;;;;6332939;28;20365;-58
2024/02/06 07:22:04;;;;;;;13.53;2.20;;;;;;;;;;6332328;28;20296;-57
2024/02/06 07:25:09;;;;;;;8.10;2.80;;;;;;;;;;6334682;28;20484;-55
2024/02/06 07:28:13;;;;;;;6.73;2.30;;;;;;;;;;6357992;28;20536;-54
2024/02/06 07:31:19;;;;;;;3.23;2.43;;;;;;;;;;6359156;28;20541;-57
2024/02/06 07:34:23;;;;;;;12.00;2.70;;;;;;;;;;6358092;28;20304;-55
2024/02/06 07:37:27;;;;;;;8.00;2.63;;;;;;;;;;6358599;28;20364;-58
2024/02/06 07:40:31;;;;;;;13.37;2.40;;;;;;;;;;6358205;28;20295;-55
2024/02/06 07:43:35;;;;;;;5.37;2.63;;;;;;;;;;6358146;28;20456;-59
2024/02/06 07:46:41;;;;;;;10.50;2.57;;;;;;;;;;6359001;28;20297;-57
2024/02/06 07:49:45;;;;;;;5.67;2.57;;;;;;;;;;6358002;28;20295;-56
2024/02/06 07:52:49;;;;;;;9.03;2.57;;;;;;;;;;6358417;28;20317;-57
2024/02/06 07:55:53;;;;;;;10.47;2.17;;;;;;;;;;6357889;28;20465;-57
2024/02/06 07:58:58;;;;;;;4.50;2.40;;;;;;;;;;6357924;28;20290;-56
2024/02/06 08:02:03;;;;;;;3.57;2.40;;;;;;;;;;6358746;28;20300;-57
2024/02/06 08:05:09;;;;;;;5.57;2.20;;;;;;;;;;6358057;28;20287;-57
2024/02/06 08:08:14;;;;;;;4.33;2.33;;;;;;;;;;6358144;28;20300;-57
2024/02/06 08:11:18;;;;;;;3.40;2.23;;;;;;;;;;6358306;28;20287;-56
2024/02/06 08:14:22;;;;;;;2.33;2.20;;;;;;;;;;6358012;28;20611;-55
2024/02/06 08:17:27;;;;;;;5.17;2.27;;;;;;;;;;6358610;28;20292;-55
2024/02/06 08:20:31;;;;;;;2.27;2.17;;;;;;;;;;6358026;28;20316;-57
2024/02/06 08:23:35;;;;;;;2.93;2.20;;;;;;;;;;6358041;28;20556;-56
2024/02/06 08:26:40;;;;;;;3.53;2.30;;;;;;;;;;6358714;28;20581;-57
2024/02/06 08:29:44;;;;;;;4.23;2.40;;;;;;;;;;6357822;28;20292;-58
2024/02/06 08:32:50;;;;;;;2.70;2.40;;;;;;;;;;6361477;28;20372;-56
2024/02/06 08:35:54;;;;;;;6.60;2.20;;;;;;;;;;6362266;28;20304;-57
2024/02/06 08:38:58;;;;;;;4.80;2.50;;;;;;;;;;6362174;28;20292;-55
2024/02/06 08:42:02;;;;;;;2.47;2.37;;;;;;;;;;6362681;28;20297;-57
2024/02/06 08:45:08;;;;;;;5.70;2.60;;;;;;;;;;6361879;28;20316;-57
2024/02/06 08:48:13;;;;;;;3.17;2.63;;;;;;;;;;6362038;28;20296;-57
2024/02/06 08:51:18;;;;;;;2.77;2.57;;;;;;;;;;6362044;28;20300;-57
2024/02/06 08:54:22;;;;;;;11.67;2.50;;;;;;;;;;6360517;28;20307;-58
2024/02/06 08:57:26;;;;;;;3.07;2.63;;;;;;;;;;6362198;28;20244;-57
2024/02/06 09:00:31;;;;;;;3.57;2.87;;;;;;;;;;6362147;28;20312;-56
2024/02/06 09:03:36;;;;;;;8.90;2.70;;;;;;;;;;6362089;28;20292;-58
2024/02/06 09:06:40;;;;;;;4.67;2.63;;;;;;;;;;6362112;28;20517;-58
2024/02/06 09:09:44;;;;;;;3.00;2.80;;;;;;;;;;6342367;28;20296;-59
2024/02/06 09:12:48;;;;;;;3.47;3.00;;;;;;;;;;6361808;28;20304;-58
2024/02/06 09:15:52;;;;;;;11.17;2.60;;;;;;;;;;6361011;28;20291;-58
2024/02/06 09:18:58;;;;;;;4.30;3.20;;;;;;;;;;6361476;28;20475;-56
2024/02/06 09:22:04;;;;;;;2.87;2.63;;;;;;;;;;6362396;28;20293;-56
2024/02/06 09:25:10;;;;;;;4.13;2.53;;;;;;;;;;6361039;28;20298;-58
2024/02/06 09:28:15;;;;;;;3.10;2.50;;;;;;;;;;6360976;28;20290;-57
2024/02/06 09:31:19;;;;;;;6.87;2.70;;;;;;;;;;6361472;28;20419;-57
2024/02/06 09:34:26;;;;;;;6.17;2.83;;;;;;;;;;6360697;28;20308;-56
2024/02/06 09:37:30;;;;;;;4.43;2.47;;;;;;;;;;6361458;28;20297;-58
2024/02/06 09:40:34;;;;;;;7.70;3.30;;;;;;;;;;6360891;28;20314;-57
2024/02/06 09:43:38;;;;;;;5.53;3.10;;;;;;;;;;6360218;28;20441;-57
2024/02/06 09:46:43;;;;;;;10.57;2.67;;;;;;;;;;6361342;28;20295;-57
2024/02/06 09:49:49;;;;;;;2.93;2.67;;;;;;;;;;6360434;28;20468;-58
2024/02/06 09:52:55;;;;;;;7.00;2.90;;;;;;;;;;6361040;28;20294;-58
2024/02/06 09:55:59;;;;;;;7.27;2.63;;;;;;;;;;6360581;28;20583;-58
2024/02/06 09:59:05;;;;;;;6.87;2.43;;;;;;;;;;6360573;28;20285;-57
2024/02/06 10:02:10;;;;;;;6.80;2.70;;;;;;;;;;6360856;28;20289;-57
2024/02/06 10:05:19;;;;;;;2.83;2.47;;;;;;;;;;6360398;28;20294;-59
2024/02/06 10:08:23;;;;;;;9.87;2.43;;;;;;;;;;6360146;28;20494;-57
2024/02/06 10:11:30;;;;;;;9.30;2.70;;;;;;;;;;6361168;28;20304;-57
2024/02/06 10:14:34;;;;;;;5.60;2.20;;;;;;;;;;6359989;28;20290;-56
2024/02/06 10:17:39;;;;;;;7.30;2.17;;;;;;;;;;6360529;28;20317;-56
2024/02/06 10:20:46;;;;;;;6.73;2.30;;;;;;;;;;6359877;28;20296;-57
2024/02/06 10:23:50;;;;;;;2.00;1.90;;;;;;;;;;6359923;28;20369;-58
2024/02/06 10:26:59;;;;;;;4.10;1.80;;;;;;;;;;6360479;28;20294;-56
2024/02/06 10:30:06;;;;;;;5.60;1.80;;;;;;;;;;6341878;28;20603;-58
2024/02/06 10:33:14;;;;;;;2.57;2.17;;;;;;;;;;6360421;28;20292;-57
2024/02/06 10:36:21;;;;;;;2.70;1.50;;;;;;;;;;6360554;28;20290;-58
2024/02/06 10:39:27;;;;;;;1.80;1.70;;;;;;;;;;6358202;28;20298;-61
2024/02/06 10:42:31;;;;;;;2.13;1.60;;;;;;;;;;6359810;28;20247;-57
2024/02/06 10:45:38;;;;;;;1.60;1.60;;;;;;;;;;6359693;28;20541;-57
2024/02/06 10:48:42;;;;;;;4.37;1.57;;;;;;;;;;6358939;28;20358;-58
2024/02/06 10:51:49;;;;;;;4.00;1.73;;;;;;;;;;6359765;28;20284;-58
2024/02/06 10:54:53;;;;;;;2.47;1.50;;;;;;;;;;6358380;28;20323;-58
2024/02/06 10:58:05;;;;;;;1.40;1.40;;;;;;;;;;6359497;28;20287;-56
2024/02/06 11:01:14;;;;;;;2.27;1.70;;;;;;;;;;6358513;28;20287;-58
2024/02/06 11:04:21;;;;;;;2.13;1.70;;;;;;;;;;6358641;28;20300;-57
2024/02/06 11:07:28;;;;;;;1.50;1.27;;;;;;;;;;6359570;28;20350;-58
2024/02/06 11:10:36;;;;;;;1.60;1.60;;;;;;;;;;6340068;28;20379;-58
2024/02/06 11:13:46;;;;;;;6.63;1.70;;;;;;;;;;6358792;28;20284;-58
2024/02/06 11:16:56;;;;;;;1.60;1.60;;;;;;;;;;6359498;28;20299;-58
2024/02/06 11:20:04;;;;;;;1.70;1.70;;;;;;;;;;6358578;28;20379;-59
2024/02/06 11:23:13;;;;;;;2.87;1.80;;;;;;;;;;6358529;28;20569;-59
2024/02/06 11:26:18;;;;;;;2.70;1.63;;;;;;;;;;6359221;28;20303;-59
2024/02/06 11:29:22;;;;;;;1.67;1.60;;;;;;;;;;6359377;28;20290;-58
2024/02/06 11:32:26;;;;;;;1.50;1.50;;;;;;;;;;6359633;28;20438;-58
2024/02/06 11:35:30;;;;;;;2.93;1.77;;;;;;;;;;6358537;28;20296;-59
2024/02/06 11:38:36;;;;;;;3.90;1.50;;;;;;;;;;6358365;28;20596;-58
2024/02/06 11:41:40;;;;;;;2.20;1.60;;;;;;;;;;6359746;28;20312;-58
2024/02/06 11:44:44;;;;;;;7.33;1.73;;;;;;;;;;6359168;28;20537;-58
2024/02/06 11:47:53;;;;;;;3.67;1.67;;;;;;;;;;6359107;28;20578;-55
2024/02/06 11:50:58;;;;;;;1.37;1.37;;;;;;;;;;6358257;28;20323;-57
2024/02/06 11:54:12;;;;;;;1.70;1.60;;;;;;;;;;6357820;28;20580;-56
2024/02/06 11:57:16;;;;;;;4.13;1.40;;;;;;;;;;6358796;28;20296;-56
2024/02/06 12:00:20;;;;;;;1.40;1.40;;;;;;;;;;6358204;28;20297;-58
2024/02/06 12:03:24;;;;;;;3.57;1.63;;;;;;;;;;6357282;28;20279;-58
2024/02/06 12:06:28;;;;;;;6.40;1.60;;;;;;;;;;6361321;28;20239;-56
2024/02/06 12:09:40;;;;;;;5.50;1.90;;;;;;;;;;6362952;28;20314;-57
2024/02/06 12:12:44;;;;;;;1.67;1.57;;;;;;;;;;6338319;28;20293;-57
2024/02/06 12:15:49;;;;;;;1.60;1.60;;;;;;;;;;6337757;28;20308;-57
2024/02/06 12:18:53;;;;;;;1.90;1.40;;;;;;;;;;6337229;28;20286;-58
2024/02/06 12:22:00;;;;;;;1.50;1.50;;;;;;;;;;6338149;28;20292;-61
2024/02/06 12:25:06;;;;;;;1.40;1.40;;;;;;;;;;6337792;28;20289;-56
2024/02/06 12:28:14;;;;;;;7.20;2.10;;;;;;;;;;6362598;28;20539;-56
2024/02/06 12:31:18;;;;;;;1.33;1.23;;;;;;;;;;6362919;28;20315;-57
2024/02/06 12:34:22;;;;;;;1.40;1.40;;;;;;;;;;6362157;28;20291;-57
2024/02/06 12:37:27;;;;;;;1.60;1.60;;;;;;;;;;6362684;28;20299;-57
2024/02/06 12:40:33;;;;;;;1.80;1.50;;;;;;;;;;6362464;28;20296;-56
2024/02/06 12:43:38;;;;;;;1.97;1.80;;;;;;;;;;6362175;28;20583;-57
2024/02/06 12:46:42;;;;;;;1.50;1.50;;;;;;;;;;6362459;28;20297;-58
2024/02/06 12:49:47;;;;;;;5.57;1.77;;;;;;;;;;6362018;28;20296;-57
2024/02/06 12:52:52;;;;;;;1.67;1.67;;;;;;;;;;6362346;28;20296;-57
2024/02/06 12:55:58;;;;;;;1.60;1.47;;;;;;;;;;6361735;28;20304;-57
2024/02/06 12:59:02;;;;;;;3.40;1.40;;;;;;;;;;6362085;28;20291;-59
2024/02/06 13:02:23;;;;;;;1.40;1.40;;;;;;;;;;6362625;28;20289;-56
2024/02/06 13:05:28;;;;;;;1.47;1.47;;;;;;;;;;6361900;28;20298;-57
2024/02/06 13:08:45;;;;;;;1.53;1.50;;;;;;;;;;6361660;28;20308;-58
2024/02/06 13:11:50;;;;;;;1.73;1.60;;;;;;;;;;6362130;28;20291;-58
2024/02/06 13:14:55;;;;;;;2.00;1.90;;;;;;;;;;6361129;28;20299;-57
2024/02/06 13:18:03;;;;;;;1.40;1.40;;;;;;;;;;6360942;28;20521;-58
2024/02/06 13:21:08;;;;;;;3.70;1.47;;;;;;;;;;6359496;28;20475;-57
2024/02/06 13:24:12;;;;;;;1.67;1.50;;;;;;;;;;6360593;28;20542;-57
2024/02/06 13:27:19;;;;;;;5.47;1.42;;;;;;;;;;6360091;28;20734;-58
2024/02/06 13:30:23;;;;;;;5.93;2.00;;;;;;;;;;6360182;28;20285;-57
2024/02/06 13:33:28;;;;;;;1.53;1.50;;;;;;;;;;6361328;28;20371;-58
2024/02/06 13:36:32;;;;;;;2.33;1.30;;;;;;;;;;6343869;28;20293;-57
2024/02/06 13:39:38;;;;;;;1.50;1.50;;;;;;;;;;6361595;28;20304;-57
2024/02/06 13:42:44;;;;;;;1.67;1.60;;;;;;;;;;6362098;28;20296;-58
2024/02/06 13:45:48;;;;;;;4.10;1.30;;;;;;;;;;6361642;28;20581;-54
2024/02/06 13:48:52;;;;;;;3.40;1.40;;;;;;;;;;6361504;28;20288;-58
2024/02/06 13:51:56;;;;;;;6.13;1.90;;;;;;;;;;6361565;28;20441;-56
2024/02/06 13:55:00;;;;;;;5.40;1.60;;;;;;;;;;6360511;28;20291;-56
2024/02/06 13:58:05;;;;;;;1.30;1.30;;;;;;;;;;6360543;28;20296;-58
2024/02/06 14:01:09;;;;;;;2.83;1.90;;;;;;;;;;6361147;28;20295;-56
2024/02/06 14:04:13;;;;;;;1.93;1.37;;;;;;;;;;6360802;28;20291;-56
2024/02/06 14:07:17;;;;;;;4.35;1.67;;;;;;;;;;6359366;28;20621;-60
2024/02/06 14:10:21;;;;;;;1.47;1.47;;;;;;;;;;6360197;28;20289;-57
2024/02/06 14:13:27;;;;;;;2.13;1.50;;;;;;;;;;6360520;28;20291;-58
2024/02/06 14:16:31;;;;;;;5.63;1.80;;;;;;;;;;6360451;28;20456;-58
2024/02/06 14:19:35;;;;;;;5.47;1.77;;;;;;;;;;6360418;28;20308;-56
2024/02/06 14:22:40;;;;;;;5.03;1.53;;;;;;;;;;6360636;28;20301;-58
2024/02/06 14:25:44;;;;;;;4.03;1.50;;;;;;;;;;6358916;28;20455;-58
2024/02/06 14:28:50;;;;;;;2.57;1.50;;;;;;;;;;6360202;28;20289;-57
2024/02/06 14:31:54;;;;;;;1.77;1.67;;;;;;;;;;6360245;28;20309;-57
2024/02/06 14:34:58;;;;;;;1.33;1.33;;;;;;;;;;6359822;28;20289;-56
2024/02/06 14:38:04;;;;;;;1.20;1.20;;;;;;;;;;6360058;28;20581;-58
2024/02/06 14:41:08;;;;;;;1.50;1.40;;;;;;;;;;6359366;28;20297;-58
2024/02/06 14:44:13;;;;;;;2.67;1.70;;;;;;;;;;6359444;28;20372;-58
2024/02/06 14:47:17;;;;;;;1.70;1.60;;;;;;;;;;6360109;28;20304;-58
2024/02/06 14:50:22;;;;;;;4.07;1.50;;;;;;;;;;6359607;28;20292;-57
2024/02/06 14:53:26;;;;;;;1.70;1.67;;;;;;;;;;6354021;28;20296;-57
2024/02/06 14:56:30;;;;;;;1.40;1.40;;;;;;;;;;6357895;28;20343;-58
2024/02/06 14:59:38;;;;;;;3.03;1.50;;;;;;;;;;6359425;28;20274;-58
2024/02/06 15:02:42;;;;;;;1.60;1.47;;;;;;;;;;6359745;28;20473;-58
2024/02/06 15:05:46;;;;;;;1.70;1.60;;;;;;;;;;6359149;28;20479;-55
2024/02/06 15:08:50;;;;;;;1.30;1.30;;;;;;;;;;6359090;28;20303;-57
2024/02/06 15:11:59;;;;;;;4.33;1.40;;;;;;;;;;6379203;27;20308;-57
2024/02/06 15:15:05;;;;;;;1.90;1.57;;;;;;;;;;6384902;27;20303;-56
2024/02/06 15:18:09;;;;;;;13.67;1.87;;;;;;;;;;6384438;27;20303;-58
2024/02/06 15:21:13;;;;;;;4.30;1.37;;;;;;;;;;6385031;28;20288;-57
2024/02/06 15:24:18;;;;;;;3.47;1.60;;;;;;;;;;6384283;28;20373;-56
2024/02/06 15:27:22;;;;;;;3.65;1.73;;;;;;;;;;6361990;28;20475;-58
2024/02/06 15:30:27;;;;;;;5.27;1.90;;;;;;;;;;6358623;28;20300;-57
2024/02/06 15:33:31;;;;;;;3.40;1.70;;;;;;;;;;6358038;28;20289;-56
2024/02/06 15:36:35;;;;;;;2.73;1.60;;;;;;;;;;6359344;28;20244;-57
2024/02/06 15:39:49;;;;;;;2.53;1.50;;;;;;;;;;6358810;28;20300;-56
2024/02/06 15:42:53;;;;;;;3.63;1.63;;;;;;;;;;6364072;28;20403;-56
2024/02/06 15:45:58;;;;;;;2.37;1.40;;;;;;;;;;6363435;28;20287;-58
2024/02/06 15:49:02;;;;;;;2.20;1.50;;;;;;;;;;6363559;28;20291;-56
2024/02/06 15:52:06;;;;;;;5.40;1.57;;;;;;;;;;6363923;28;20292;-57
2024/02/06 15:55:11;;;;;;;5.50;2.00;;;;;;;;;;6363011;28;20569;-56
2024/02/06 15:58:15;;;;;;;3.60;1.67;;;;;;;;;;6363385;28;20299;-57
2024/02/06 16:01:21;;;;;;;4.67;1.90;;;;;;;;;;6363931;28;20596;-57
2024/02/06 16:04:25;;;;;;;1.40;1.40;;;;;;;;;;6363537;28;20308;-58
2024/02/06 16:07:30;;;;;;;2.17;1.57;;;;;;;;;;6363879;28;20309;-56
2024/02/06 16:10:34;;;;;;;2.77;1.67;;;;;;;;;;6362827;28;20300;-57
2024/02/06 16:13:38;;;;;;;2.03;1.83;;;;;;;;;;6388506;27;20584;-56
2024/02/06 16:16:44;;;;;;;1.60;1.50;;;;;;;;;;6389103;27;20291;-59
2024/02/06 16:19:48;;;;;;;8.17;1.80;;;;;;;;;;6388681;27;20356;-57
2024/02/06 16:22:52;;;;;;;1.80;1.73;;;;;;;;;;6389213;27;20294;-58
2024/02/06 16:25:56;;;;;;;2.53;1.60;;;;;;;;;;6380422;27;20288;-57
2024/02/06 16:29:00;;;;;;;1.90;1.80;;;;;;;;;;6363236;28;20311;-57
2024/02/06 16:32:06;;;;;;;7.30;1.67;;;;;;;;;;6363079;28;20296;-57
2024/02/06 16:35:11;;;;;;;1.70;1.60;;;;;;;;;;6362477;28;20570;-57
2024/02/06 16:38:17;;;;;;;2.50;1.47;;;;;;;;;;6362397;28;20316;-59
2024/02/06 16:41:21;;;;;;;7.70;1.90;;;;;;;;;;6362905;28;20304;-57
2024/02/06 16:44:26;;;;;;;1.83;1.73;;;;;;;;;;6362641;28;20596;-60
2024/02/06 16:47:32;;;;;;;1.90;1.67;;;;;;;;;;6362769;28;20296;-57
2024/02/06 16:50:36;;;;;;;4.30;1.60;;;;;;;;;;6361997;28;20292;-57
2024/02/06 16:53:41;;;;;;;1.60;1.50;;;;;;;;;;6360183;28;20491;-57
2024/02/06 16:56:45;;;;;;;3.20;1.47;;;;;;;;;;6363065;28;20297;-57
2024/02/06 16:59:49;;;;;;;1.70;1.53;;;;;;;;;;6362447;28;20291;-57
2024/02/06 17:02:55;;;;;;;2.47;1.47;;;;;;;;;;6362393;28;20300;-59
2024/02/06 17:05:59;;;;;;;1.93;1.83;;;;;;;;;;6362013;28;20577;-57
2024/02/06 17:09:03;;;;;;;2.00;1.60;;;;;;;;;;6361966;28;20614;-56
2024/02/06 17:12:08;;;;;;;1.80;1.80;;;;;;;;;;6382050;27;20299;-57
2024/02/06 17:15:12;;;;;;;6.80;2.43;;;;;;;;;;6387461;27;20292;-55
2024/02/06 17:18:17;;;;;;;1.90;1.80;;;;;;;;;;6386877;27;20304;-58
2024/02/06 17:21:22;;;;;;;2.03;1.93;;;;;;;;;;6386573;27;20295;-60
2024/02/06 17:24:26;;;;;;;1.67;1.67;;;;;;;;;;6386821;27;20297;-57
2024/02/06 17:27:30;;;;;;;5.77;1.70;;;;;;;;;;6365830;27;20235;-57
2024/02/06 17:30:37;;;;;;;1.43;1.43;;;;;;;;;;6360962;28;20299;-56
2024/02/06 17:33:43;;;;;;;2.93;1.40;;;;;;;;;;6361586;28;20288;-59
2024/02/06 17:36:47;;;;;;;1.53;1.43;;;;;;;;;;6361906;28;20288;-55
2024/02/06 17:39:51;;;;;;;2.17;1.53;;;;;;;;;;6361179;28;20292;-59
2024/02/06 17:42:56;;;;;;;1.50;1.43;;;;;;;;;;6361568;28;20286;-57
2024/02/06 17:45:59;;;;;;;4.00;1.60;;;;;;;;;;6342448;28;20301;-55
2024/02/06 17:49:05;;;;;;;1.37;1.37;;;;;;;;;;6361116;28;20296;-58
2024/02/06 17:52:09;;;;;;;2.77;1.73;;;;;;;;;;6360926;28;20596;-58
2024/02/06 17:55:13;;;;;;;1.30;1.30;;;;;;;;;;6360325;28;20308;-58
2024/02/06 17:58:17;;;;;;;3.37;1.50;;;;;;;;;;6360023;28;20464;-57
2024/02/06 18:01:23;;;;;;;2.97;1.60;;;;;;;;;;6361205;28;20299;-57
2024/02/06 18:04:30;;;;;;;2.00;1.80;;;;;;;;;;6359835;28;20291;-58
2024/02/06 18:07:34;;;;;;;1.40;1.40;;;;;;;;;;6360922;28;20284;-57
2024/02/06 18:10:38;;;;;;;1.40;1.30;;;;;;;;;;6359761;28;20255;-57
2024/02/06 18:13:42;;;;;;;1.73;1.73;;;;;;;;;;6359804;28;20315;-57
2024/02/06 18:17:12;;;;;;;1.53;1.53;;;;;;;;;;6386121;27;20295;-59
2024/02/06 18:20:18;;;;;;;1.70;1.60;;;;;;;;;;6385390;27;20302;-57
2024/02/06 18:23:22;;;;;;;6.33;1.80;;;;;;;;;;6385387;27;20291;-56
2024/02/06 18:26:26;;;;;;;1.60;1.60;;;;;;;;;;6373648;27;20295;-58
2024/02/06 18:29:31;;;;;;;1.53;1.53;;;;;;;;;;6359611;28;20301;-57